Time;durP1;ratioP1;P1;durP2;ratioP2;P2;SDS_P1;SDS_P2;PMS_P1;PMS_P2;Temp;Humidity;BMP_temperature;BMP_pressure;BME280_temperature;BME280_humidity;BME280_pressure;Samples;Min_cycle;Max_cycle;Signal;HPM_P1;HPM_P2
2022/10/24 00:01:21;;;;;;;9.48;4.82;;;;;;;;;;4916429;29;20075;-66
2022/10/24 00:03:48;;;;;;;9.43;4.78;;;;;;;;;;4916480;29;20048;-66
2022/10/24 00:06:16;;;;;;;10.13;4.88;;;;;;;;;;4916362;29;20099;-66
2022/10/24 00:08:44;;;;;;;9.57;5.13;;;;;;;;;;4916268;29;20045;-66
2022/10/24 00:11:13;;;;;;;12.70;5.40;;;;;;;;;;4916670;29;20048;-66
2022/10/24 00:13:41;;;;;;;11.50;5.50;;;;;;;;;;4916310;29;20479;-66
2022/10/24 00:16:09;;;;;;;11.23;5.85;;;;;;;;;;4916302;29;20048;-66
2022/10/24 00:18:36;;;;;;;10.18;6.45;;;;;;;;;;4916249;29;20075;-66
2022/10/24 00:21:04;;;;;;;10.57;6.60;;;;;;;;;;4916447;29;20494;-66
2022/10/24 00:23:32;;;;;;;10.60;6.38;;;;;;;;;;4916230;29;20048;-66
2022/10/24 00:26:02;;;;;;;10.40;7.13;;;;;;;;;;4916193;29;20072;-66
2022/10/24 00:28:31;;;;;;;12.85;8.18;;;;;;;;;;4915753;29;20558;-66
2022/10/24 00:30:58;;;;;;;10.60;6.72;;;;;;;;;;4915681;29;20056;-66
2022/10/24 00:33:26;;;;;;;11.65;6.75;;;;;;;;;;4916222;29;20451;-66
2022/10/24 00:35:53;;;;;;;10.25;6.78;;;;;;;;;;4916254;29;20044;-66
2022/10/24 00:38:21;;;;;;;12.32;7.22;;;;;;;;;;4916278;29;20127;-66
2022/10/24 00:40:48;;;;;;;12.35;7.70;;;;;;;;;;4915975;29;20126;-66
2022/10/24 00:43:21;;;;;;;10.43;7.10;;;;;;;;;;4916213;29;20103;-66
2022/10/24 00:45:57;;;;;;;13.23;7.72;;;;;;;;;;4916541;29;20044;-66
2022/10/24 00:48:27;;;;;;;13.43;8.57;;;;;;;;;;4915931;29;20051;-66
2022/10/24 00:51:05;;;;;;;11.88;7.30;;;;;;;;;;4916812;29;20040;-66
2022/10/24 00:53:35;;;;;;;10.73;7.00;;;;;;;;;;4919659;29;20071;-66
2022/10/24 00:56:03;;;;;;;15.80;6.80;;;;;;;;;;4919808;29;20048;-66
2022/10/24 00:58:32;;;;;;;9.48;6.00;;;;;;;;;;4919546;29;20048;-66
2022/10/24 01:01:00;;;;;;;12.25;7.63;;;;;;;;;;4919596;29;20068;-66
2022/10/24 01:03:28;;;;;;;9.90;7.53;;;;;;;;;;4919471;29;20048;-66
2022/10/24 01:05:55;;;;;;;13.95;7.38;;;;;;;;;;4918166;29;20040;-66
2022/10/24 01:08:25;;;;;;;11.10;8.02;;;;;;;;;;4919322;29;20044;-66
2022/10/24 01:11:03;;;;;;;11.95;6.68;;;;;;;;;;4919355;29;20044;-66
2022/10/24 01:13:30;;;;;;;10.63;7.38;;;;;;;;;;4919172;29;20131;-66
2022/10/24 01:16:04;;;;;;;16.08;8.40;;;;;;;;;;4919266;29;20044;-66
2022/10/24 01:18:38;;;;;;;13.07;8.65;;;;;;;;;;4919240;29;20075;-66
2022/10/24 01:21:06;;;;;;;11.83;8.57;;;;;;;;;;4919381;29;20052;-66
2022/10/24 01:23:45;;;;;;;13.73;8.15;;;;;;;;;;4919087;29;20282;-66
2022/10/24 01:26:22;;;;;;;14.60;9.65;;;;;;;;;;4919289;29;20125;-66
2022/10/24 01:29:15;;;;;;;13.02;8.05;;;;;;;;;;4919169;29;20056;-66
2022/10/24 01:31:49;;;;;;;14.93;9.40;;;;;;;;;;4917698;29;20399;-66
2022/10/24 01:34:28;;;;;;;11.45;6.95;;;;;;;;;;4918790;29;20384;-66
2022/10/24 01:37:05;;;;;;;15.95;8.07;;;;;;;;;;4918694;29;20056;-66
2022/10/24 01:39:36;;;;;;;10.93;7.80;;;;;;;;;;4918899;29;20036;-66
2022/10/24 01:42:05;;;;;;;11.77;7.03;;;;;;;;;;4918864;29;20129;-66
2022/10/24 01:44:53;;;;;;;14.85;7.03;;;;;;;;;;4918720;29;20531;-66
2022/10/24 01:47:23;;;;;;;10.27;7.60;;;;;;;;;;4918576;29;20068;-66
2022/10/24 01:49:57;;;;;;;10.15;6.95;;;;;;;;;;4918819;29;20076;-66
2022/10/24 01:52:27;;;;;;;12.70;7.90;;;;;;;;;;4918630;29;20063;-66
2022/10/24 01:54:54;;;;;;;12.77;7.68;;;;;;;;;;4918655;29;20054;-66
2022/10/24 01:57:26;;;;;;;12.65;7.85;;;;;;;;;;4918408;29;20505;-66
2022/10/24 01:59:54;;;;;;;12.60;7.65;;;;;;;;;;4918613;29;20398;-66
2022/10/24 02:02:23;;;;;;;11.63;9.63;;;;;;;;;;4918133;29;20127;-66
2022/10/24 02:04:57;;;;;;;10.43;7.50;;;;;;;;;;4918489;29;20048;-66
2022/10/24 02:07:25;;;;;;;12.73;7.00;;;;;;;;;;4918318;29;20509;-66
2022/10/24 02:09:55;;;;;;;10.23;6.80;;;;;;;;;;4918143;29;20526;-66
2022/10/24 02:12:25;;;;;;;10.57;6.72;;;;;;;;;;4918417;29;20050;-66
2022/10/24 02:14:59;;;;;;;13.18;6.80;;;;;;;;;;4918075;29;20099;-66
2022/10/24 02:17:27;;;;;;;12.13;7.03;;;;;;;;;;4918094;29;20044;-66
2022/10/24 02:20:00;;;;;;;10.70;6.38;;;;;;;;;;4918074;29;20048;-66
2022/10/24 02:22:37;;;;;;;13.55;7.25;;;;;;;;;;4918280;29;20047;-66
2022/10/24 02:25:16;;;;;;;10.13;6.53;;;;;;;;;;4918039;29;20763;-66
2022/10/24 02:27:49;;;;;;;12.88;7.07;;;;;;;;;;4918014;29;20499;-66
2022/10/24 02:30:18;;;;;;;13.65;7.40;;;;;;;;;;4917942;29;20051;-66
2022/10/24 02:32:50;;;;;;;11.98;7.68;;;;;;;;;;4917736;29;20094;-66
2022/10/24 02:35:20;;;;;;;10.52;6.97;;;;;;;;;;4917894;29;20080;-66
2022/10/24 02:37:53;;;;;;;10.13;6.35;;;;;;;;;;4917716;29;20047;-66
2022/10/24 02:40:21;;;;;;;12.20;6.45;;;;;;;;;;4917736;29;20052;-66
2022/10/24 02:42:51;;;;;;;11.27;6.50;;;;;;;;;;4917641;29;20048;-66
2022/10/24 02:45:19;;;;;;;9.68;6.15;;;;;;;;;;4917721;29;20044;-66
2022/10/24 02:47:47;;;;;;;9.82;6.72;;;;;;;;;;4917628;29;20107;-66
2022/10/24 02:50:15;;;;;;;10.75;6.53;;;;;;;;;;4917555;29;20040;-66
2022/10/24 02:52:43;;;;;;;9.70;6.55;;;;;;;;;;4931930;29;20055;-66
2022/10/24 02:55:11;;;;;;;11.00;6.03;;;;;;;;;;4917249;29;20071;-66
2022/10/24 02:57:38;;;;;;;10.80;6.20;;;;;;;;;;4917177;29;20055;-66
2022/10/24 03:00:06;;;;;;;9.80;6.68;;;;;;;;;;4917499;29;20483;-66
2022/10/24 03:02:34;;;;;;;12.45;7.60;;;;;;;;;;4917160;29;20040;-66
2022/10/24 03:05:01;;;;;;;9.48;6.65;;;;;;;;;;4917092;29;20129;-66
2022/10/24 03:07:29;;;;;;;11.18;7.28;;;;;;;;;;4917299;29;20053;-66
2022/10/24 03:10:01;;;;;;;14.32;7.40;;;;;;;;;;4917210;29;20032;-66
2022/10/24 03:12:28;;;;;;;17.17;7.75;;;;;;;;;;4917048;29;20044;-66
2022/10/24 03:14:56;;;;;;;16.75;8.15;;;;;;;;;;4916642;29;20059;-66
2022/10/24 03:17:23;;;;;;;15.35;8.95;;;;;;;;;;4917220;29;20436;-66
2022/10/24 03:19:51;;;;;;;19.48;10.05;;;;;;;;;;4916885;29;20048;-66
2022/10/24 03:22:18;;;;;;;21.90;13.07;;;;;;;;;;4917138;29;20103;-66
2022/10/24 03:24:46;;;;;;;16.02;8.90;;;;;;;;;;4917109;29;20126;-66
2022/10/24 03:27:22;;;;;;;17.80;8.88;;;;;;;;;;4916962;29;20099;-66
2022/10/24 03:29:49;;;;;;;13.32;6.95;;;;;;;;;;4916929;29;20099;-66
2022/10/24 03:32:17;;;;;;;14.45;6.95;;;;;;;;;;4916680;29;20063;-66
2022/10/24 03:34:44;;;;;;;14.45;6.53;;;;;;;;;;4916698;29;20052;-66
2022/10/24 03:37:12;;;;;;;9.77;6.13;;;;;;;;;;4916674;29;20105;-66
2022/10/24 03:39:39;;;;;;;12.63;6.40;;;;;;;;;;4916735;29;20047;-66
2022/10/24 03:42:07;;;;;;;11.65;6.05;;;;;;;;;;4916696;29;20131;-66
2022/10/24 03:44:34;;;;;;;11.77;6.50;;;;;;;;;;4916725;29;20032;-66
2022/10/24 03:47:02;;;;;;;10.82;6.70;;;;;;;;;;4916764;29;20414;-66
2022/10/24 03:49:31;;;;;;;14.32;7.68;;;;;;;;;;4916164;29;20524;-66
2022/10/24 03:51:58;;;;;;;15.07;8.82;;;;;;;;;;4915508;29;20080;-66
2022/10/24 03:54:26;;;;;;;18.90;9.52;;;;;;;;;;4915315;29;20495;-66
2022/10/24 03:56:53;;;;;;;17.23;9.05;;;;;;;;;;4918173;29;20067;-66
2022/10/24 03:59:21;;;;;;;15.35;7.95;;;;;;;;;;4934061;29;20043;-66
2022/10/24 04:01:48;;;;;;;14.10;8.32;;;;;;;;;;4935683;29;20098;-66
2022/10/24 04:04:16;;;;;;;14.98;8.80;;;;;;;;;;4935171;29;20079;-67
2022/10/24 04:06:43;;;;;;;14.88;7.80;;;;;;;;;;4935610;29;20102;-67
2022/10/24 04:09:11;;;;;;;13.57;8.02;;;;;;;;;;4935287;29;20508;-66
2022/10/24 04:11:38;;;;;;;12.35;6.50;;;;;;;;;;4935362;29;20064;-66
2022/10/24 04:14:08;;;;;;;12.88;6.38;;;;;;;;;;4935343;29;20052;-66
2022/10/24 04:16:35;;;;;;;8.80;6.28;;;;;;;;;;4935224;29;20055;-66
2022/10/24 04:19:03;;;;;;;10.77;6.70;;;;;;;;;;4934055;29;20112;-66
2022/10/24 04:21:31;;;;;;;19.08;9.43;;;;;;;;;;4935111;29;20091;-66
2022/10/24 04:23:58;;;;;;;12.88;9.27;;;;;;;;;;4934936;29;20043;-66
2022/10/24 04:26:26;;;;;;;17.88;10.40;;;;;;;;;;4937215;29;20079;-66
2022/10/24 04:28:53;;;;;;;14.13;8.20;;;;;;;;;;4938957;29;20094;-66
2022/10/24 04:31:21;;;;;;;13.63;9.35;;;;;;;;;;4937723;29;20054;-66
2022/10/24 04:33:50;;;;;;;16.08;8.75;;;;;;;;;;4938723;29;20582;-66
2022/10/24 04:36:17;;;;;;;13.30;9.10;;;;;;;;;;4939117;29;20040;-66
2022/10/24 04:38:45;;;;;;;13.63;8.35;;;;;;;;;;4938728;29;20498;-66
2022/10/24 04:41:12;;;;;;;12.77;8.10;;;;;;;;;;4937375;29;20473;-66
2022/10/24 04:43:40;;;;;;;16.90;8.93;;;;;;;;;;4938920;29;20545;-66
2022/10/24 04:46:07;;;;;;;20.92;8.50;;;;;;;;;;4938801;29;20114;-66
2022/10/24 04:48:35;;;;;;;15.18;7.88;;;;;;;;;;4938754;29;20043;-66
2022/10/24 04:51:02;;;;;;;14.20;8.38;;;;;;;;;;4938752;29;20039;-66
2022/10/24 04:53:30;;;;;;;12.88;8.50;;;;;;;;;;4938634;29;20091;-66
2022/10/24 04:55:57;;;;;;;14.70;8.82;;;;;;;;;;4938826;29;20036;-66
2022/10/24 04:58:25;;;;;;;14.43;8.85;;;;;;;;;;4938427;29;20043;-66
2022/10/24 05:00:52;;;;;;;13.40;8.75;;;;;;;;;;4938671;29;20079;-66
2022/10/24 05:03:22;;;;;;;14.25;7.53;;;;;;;;;;4938483;29;20402;-66
2022/10/24 05:05:49;;;;;;;13.00;8.82;;;;;;;;;;4938556;29;20454;-66
2022/10/24 05:08:17;;;;;;;14.73;8.40;;;;;;;;;;4938532;29;20311;-66
2022/10/24 05:10:45;;;;;;;23.83;9.55;;;;;;;;;;4938357;29;20044;-66
2022/10/24 05:13:12;;;;;;;18.23;9.70;;;;;;;;;;4938345;29;20044;-66
2022/10/24 05:15:40;;;;;;;18.85;9.70;;;;;;;;;;4938297;29;20043;-66
2022/10/24 05:18:07;;;;;;;21.02;9.68;;;;;;;;;;4938286;29;20044;-66
2022/10/24 05:20:35;;;;;;;24.55;10.68;;;;;;;;;;4938152;29;20075;-66
2022/10/24 05:23:02;;;;;;;22.23;10.02;;;;;;;;;;4938165;29;20131;-66
2022/10/24 05:25:30;;;;;;;19.90;10.00;;;;;;;;;;4941740;29;20058;-66
2022/10/24 05:27:57;;;;;;;29.00;10.35;;;;;;;;;;4938320;29;20090;-66
2022/10/24 05:30:25;;;;;;;23.02;9.52;;;;;;;;;;4937943;29;20036;-66
2022/10/24 05:32:52;;;;;;;23.42;9.13;;;;;;;;;;4937693;29;20064;-66
2022/10/24 05:35:20;;;;;;;19.73;10.13;;;;;;;;;;4937849;29;20044;-66
2022/10/24 05:37:47;;;;;;;21.85;8.68;;;;;;;;;;4937041;29;20040;-66
2022/10/24 05:40:15;;;;;;;23.50;8.55;;;;;;;;;;4937573;29;20118;-66
2022/10/24 05:42:43;;;;;;;15.98;9.07;;;;;;;;;;4937642;29;20470;-67
2022/10/24 05:45:11;;;;;;;23.25;9.70;;;;;;;;;;4937970;29;20047;-67
2022/10/24 05:47:38;;;;;;;20.45;8.18;;;;;;;;;;4937995;29;20039;-67
2022/10/24 05:50:06;;;;;;;18.50;9.07;;;;;;;;;;4936562;29;20497;-67
2022/10/24 05:52:35;;;;;;;22.30;9.20;;;;;;;;;;4937632;29;20049;-67
2022/10/24 05:55:05;;;;;;;23.05;9.05;;;;;;;;;;4937647;29;20414;-67
2022/10/24 05:57:35;;;;;;;22.50;9.93;;;;;;;;;;4937422;29;20048;-67
2022/10/24 06:00:07;;;;;;;30.42;14.95;;;;;;;;;;4937745;29;20039;-67
2022/10/24 06:02:38;;;;;;;32.97;16.60;;;;;;;;;;4937741;29;20140;-67
2022/10/24 06:05:06;;;;;;;18.05;9.18;;;;;;;;;;4937513;29;20477;-67
2022/10/24 06:07:34;;;;;;;18.85;8.63;;;;;;;;;;4937133;29;20103;-67
2022/10/24 06:10:02;;;;;;;12.05;9.07;;;;;;;;;;4937268;29;20043;-67
2022/10/24 06:12:30;;;;;;;16.50;9.27;;;;;;;;;;4937159;29;20107;-67
2022/10/24 06:14:57;;;;;;;21.10;9.23;;;;;;;;;;4937282;29;20103;-67
2022/10/24 06:17:25;;;;;;;21.77;10.32;;;;;;;;;;4937052;29;20047;-67
2022/10/24 06:19:53;;;;;;;18.85;9.75;;;;;;;;;;4937385;29;20052;-67
2022/10/24 06:22:24;;;;;;;13.38;9.30;;;;;;;;;;4935808;29;20039;-67
2022/10/24 06:24:51;;;;;;;16.38;9.65;;;;;;;;;;4937109;29;20451;-67
2022/10/24 06:27:19;;;;;;;16.27;9.25;;;;;;;;;;4937012;29;20391;-67
2022/10/24 06:29:46;;;;;;;15.50;9.90;;;;;;;;;;4937341;29;20040;-67
2022/10/24 06:32:13;;;;;;;12.52;9.00;;;;;;;;;;4936817;29;20090;-66
2022/10/24 06:34:41;;;;;;;15.13;8.23;;;;;;;;;;4936987;29;20127;-66
2022/10/24 06:37:08;;;;;;;14.00;8.88;;;;;;;;;;4936704;29;20043;-66
2022/10/24 06:39:36;;;;;;;12.00;8.75;;;;;;;;;;4936828;29;20118;-67
2022/10/24 06:42:03;;;;;;;12.07;8.30;;;;;;;;;;4936745;29;20044;-66
2022/10/24 06:44:30;;;;;;;12.23;8.43;;;;;;;;;;4936754;29;20044;-66
2022/10/24 06:46:58;;;;;;;11.98;9.45;;;;;;;;;;4936674;29;20046;-66
2022/10/24 06:49:26;;;;;;;16.67;9.43;;;;;;;;;;4935645;29;20039;-66
2022/10/24 06:51:53;;;;;;;16.45;11.35;;;;;;;;;;4936536;29;20502;-66
2022/10/24 06:54:20;;;;;;;20.40;10.25;;;;;;;;;;4936607;29;20119;-66
2022/10/24 06:56:52;;;;;;;16.50;10.60;;;;;;;;;;4936348;29;20123;-66
2022/10/24 06:59:20;;;;;;;15.90;10.57;;;;;;;;;;4936412;29;20052;-66
2022/10/24 07:01:47;;;;;;;17.13;9.90;;;;;;;;;;4936389;29;20047;-66
2022/10/24 07:04:15;;;;;;;12.48;8.93;;;;;;;;;;4936321;29;20040;-66
2022/10/24 07:06:42;;;;;;;13.40;9.70;;;;;;;;;;4936584;29;20725;-67
2022/10/24 07:09:11;;;;;;;17.67;9.68;;;;;;;;;;4936218;29;20122;-66
2022/10/24 07:11:42;;;;;;;22.10;10.60;;;;;;;;;;4936186;29;20115;-67
2022/10/24 07:14:09;;;;;;;17.58;9.68;;;;;;;;;;4936162;29;20032;-67
2022/10/24 07:16:37;;;;;;;21.70;10.23;;;;;;;;;;4936141;29;20044;-67
2022/10/24 07:19:05;;;;;;;18.10;10.10;;;;;;;;;;4936166;29;20036;-67
2022/10/24 07:21:33;;;;;;;20.42;12.00;;;;;;;;;;4936093;29;20122;-67
2022/10/24 07:24:00;;;;;;;21.67;10.48;;;;;;;;;;4936121;29;20050;-67
2022/10/24 07:26:30;;;;;;;17.05;11.27;;;;;;;;;;4935851;29;20091;-67
2022/10/24 07:28:59;;;;;;;29.60;16.77;;;;;;;;;;4935978;29;20561;-67
2022/10/24 07:31:33;;;;;;;38.65;21.58;;;;;;;;;;4935876;29;20047;-67
2022/10/24 07:34:02;;;;;;;17.50;11.05;;;;;;;;;;4934615;29;20545;-67
2022/10/24 07:36:29;;;;;;;20.05;11.43;;;;;;;;;;4936014;29;20107;-67
2022/10/24 07:38:57;;;;;;;21.73;11.75;;;;;;;;;;4934632;29;20079;-67
2022/10/24 07:41:25;;;;;;;20.38;12.18;;;;;;;;;;4935793;29;20043;-67
2022/10/24 07:43:56;;;;;;;24.92;10.85;;;;;;;;;;4935755;29;20079;-67
2022/10/24 07:46:23;;;;;;;21.48;10.57;;;;;;;;;;4935850;29;20048;-67
2022/10/24 07:48:51;;;;;;;18.70;10.18;;;;;;;;;;4935486;29;20040;-67
2022/10/24 07:51:19;;;;;;;15.20;9.77;;;;;;;;;;4935628;29;20414;-67
2022/10/24 07:53:46;;;;;;;17.08;10.77;;;;;;;;;;4935501;29;20075;-69
2022/10/24 07:56:17;;;;;;;21.45;10.85;;;;;;;;;;4935468;29;20502;-67
2022/10/24 07:58:45;;;;;;;27.77;12.57;;;;;;;;;;4935357;29;20094;-67
2022/10/24 08:01:18;;;;;;;21.65;11.73;;;;;;;;;;4935168;29;20050;-67
2022/10/24 08:03:46;;;;;;;24.80;13.38;;;;;;;;;;4935407;29;20054;-67
2022/10/24 08:06:15;;;;;;;22.60;12.50;;;;;;;;;;4935328;29;20052;-67
2022/10/24 08:08:43;;;;;;;18.67;12.05;;;;;;;;;;4935396;29;20517;-67
2022/10/24 08:11:15;;;;;;;21.23;12.07;;;;;;;;;;4935493;29;20518;-67
2022/10/24 08:13:43;;;;;;;21.13;11.73;;;;;;;;;;4935115;29;20109;-67
2022/10/24 08:16:12;;;;;;;24.23;13.15;;;;;;;;;;4935174;29;20098;-67
2022/10/24 08:18:40;;;;;;;20.75;12.13;;;;;;;;;;4935042;29;20040;-67
2022/10/24 08:21:09;;;;;;;24.02;11.50;;;;;;;;;;4935197;29;20039;-67
2022/10/24 08:23:38;;;;;;;20.27;12.02;;;;;;;;;;4935118;29;20071;-67
2022/10/24 08:26:06;;;;;;;22.88;11.05;;;;;;;;;;4935149;29;20462;-67
2022/10/24 08:28:33;;;;;;;25.30;10.82;;;;;;;;;;4935282;29;20043;-66
2022/10/24 08:31:02;;;;;;;23.83;10.63;;;;;;;;;;4935007;29;20106;-67
2022/10/24 08:33:30;;;;;;;21.15;10.95;;;;;;;;;;4935203;29;20040;-67
2022/10/24 08:35:59;;;;;;;20.95;10.68;;;;;;;;;;4935031;29;20118;-67
2022/10/24 08:38:27;;;;;;;23.10;10.63;;;;;;;;;;4935061;29;20268;-67
2022/10/24 08:40:55;;;;;;;19.20;10.38;;;;;;;;;;4935060;29;20047;-67
2022/10/24 08:43:23;;;;;;;41.10;10.48;;;;;;;;;;4935396;29;20046;-67
2022/10/24 08:45:59;;;;;;;25.48;9.52;;;;;;;;;;4935031;29;20102;-67
2022/10/24 08:48:28;;;;;;;26.55;10.95;;;;;;;;;;4934913;29;20127;-67
2022/10/24 08:51:02;;;;;;;23.05;10.05;;;;;;;;;;4934903;29;20090;-67
2022/10/24 08:53:30;;;;;;;19.17;10.18;;;;;;;;;;4934988;29;20048;-66
2022/10/24 08:55:59;;;;;;;16.35;9.32;;;;;;;;;;4933733;29;20114;-66
2022/10/24 08:58:44;;;;;;;20.27;8.57;;;;;;;;;;4934546;29;20047;-67
2022/10/24 09:01:20;;;;;;;17.05;8.27;;;;;;;;;;4933691;29;20044;-66
2022/10/24 09:03:50;;;;;;;20.23;8.93;;;;;;;;;;4934943;29;20059;-66
2022/10/24 09:06:28;;;;;;;19.73;11.30;;;;;;;;;;4934750;29;20046;-66
2022/10/24 09:08:57;;;;;;;19.33;9.25;;;;;;;;;;4934629;29;20054;-66
2022/10/24 09:11:42;;;;;;;13.95;8.95;;;;;;;;;;4934895;29;20122;-66
2022/10/24 09:14:14;;;;;;;16.42;9.18;;;;;;;;;;4938300;29;20405;-66
2022/10/24 09:16:42;;;;;;;20.38;8.35;;;;;;;;;;4938283;29;20048;-66
2022/10/24 09:19:14;;;;;;;15.15;7.05;;;;;;;;;;4938200;29;20048;-67
2022/10/24 09:21:42;;;;;;;13.27;7.30;;;;;;;;;;4937119;29;20489;-66
2022/10/24 09:24:30;;;;;;;12.35;8.50;;;;;;;;;;4938824;29;20047;-67
2022/10/24 09:26:59;;;;;;;12.68;7.13;;;;;;;;;;4940239;29;20051;-67
2022/10/24 09:29:31;;;;;;;20.42;7.10;;;;;;;;;;4938346;29;20047;-67
2022/10/24 09:31:58;;;;;;;8.65;5.82;;;;;;;;;;4937991;29;20056;-66
2022/10/24 09:34:26;;;;;;;21.60;7.20;;;;;;;;;;4937999;29;20071;-66
2022/10/24 09:36:53;;;;;;;13.40;6.90;;;;;;;;;;4938013;29;20051;-66
2022/10/24 09:39:26;;;;;;;25.45;7.03;;;;;;;;;;4937770;29;20054;-67
2022/10/24 09:41:53;;;;;;;28.33;7.05;;;;;;;;;;4937812;29;20504;-66
2022/10/24 09:44:47;;;;;;;16.38;6.10;;;;;;;;;;4936436;29;20099;-67
2022/10/24 09:47:28;;;;;;;20.27;6.53;;;;;;;;;;4935502;29;20056;-66
2022/10/24 09:49:56;;;;;;;12.70;6.22;;;;;;;;;;4937616;29;20054;-67
2022/10/24 09:52:28;;;;;;;9.80;5.47;;;;;;;;;;4937843;29;20047;-67
2022/10/24 09:55:04;;;;;;;93.88;11.15;;;;;;;;;;4937541;29;20717;-66
2022/10/24 09:57:39;;;;;;;10.27;5.53;;;;;;;;;;4937570;29;20071;-66
2022/10/24 10:00:19;;;;;;;18.65;5.82;;;;;;;;;;4937431;29;20561;-66
2022/10/24 10:03:00;;;;;;;7.63;4.90;;;;;;;;;;4937368;29;20078;-66
2022/10/24 10:05:41;;;;;;;22.17;6.57;;;;;;;;;;4937538;29;20055;-66
2022/10/24 10:08:12;;;;;;;20.95;6.38;;;;;;;;;;4937395;29;20123;-67
2022/10/24 10:10:40;;;;;;;8.52;4.85;;;;;;;;;;4937376;29;20387;-67
2022/10/24 10:13:21;;;;;;;7.07;4.57;;;;;;;;;;4937440;29;20044;-67
2022/10/24 10:15:55;;;;;;;6.97;4.45;;;;;;;;;;4937137;29;20048;-67
2022/10/24 10:18:24;;;;;;;9.38;4.72;;;;;;;;;;4937107;29;20043;-67
2022/10/24 10:21:01;;;;;;;7.70;4.53;;;;;;;;;;4937095;29;20087;-66
2022/10/24 10:23:31;;;;;;;6.68;4.43;;;;;;;;;;4936858;29;20048;-67
2022/10/24 10:26:03;;;;;;;6.65;3.92;;;;;;;;;;4935709;29;20070;-67
2022/10/24 10:28:33;;;;;;;7.55;4.10;;;;;;;;;;4937283;29;20065;-67
2022/10/24 10:31:01;;;;;;;10.43;4.97;;;;;;;;;;4936950;29;20062;-67
2022/10/24 10:33:35;;;;;;;5.78;4.10;;;;;;;;;;4936843;29;20107;-67
2022/10/24 10:36:03;;;;;;;7.07;4.22;;;;;;;;;;4936984;29;20081;-67
2022/10/24 10:38:49;;;;;;;9.45;4.80;;;;;;;;;;4936765;29;20079;-67
2022/10/24 10:41:22;;;;;;;6.30;3.97;;;;;;;;;;4936846;29;20051;-67
2022/10/24 10:44:05;;;;;;;7.13;4.10;;;;;;;;;;4936897;29;20057;-67
2022/10/24 10:46:36;;;;;;;6.47;4.30;;;;;;;;;;4936621;29;20099;-67
2022/10/24 10:49:09;;;;;;;7.30;4.50;;;;;;;;;;4936558;29;20047;-67
2022/10/24 10:51:55;;;;;;;6.28;3.50;;;;;;;;;;4936545;29;20506;-67
2022/10/24 10:54:23;;;;;;;16.95;4.50;;;;;;;;;;4936773;29;20054;-67
2022/10/24 10:56:53;;;;;;;6.13;3.83;;;;;;;;;;4936508;29;20074;-67
2022/10/24 10:59:29;;;;;;;6.93;3.90;;;;;;;;;;4936494;29;20506;-67
2022/10/24 11:02:04;;;;;;;9.00;4.20;;;;;;;;;;4936325;29;20071;-67
2022/10/24 11:04:50;;;;;;;9.48;4.18;;;;;;;;;;4936335;29;20074;-67
2022/10/24 11:07:36;;;;;;;16.58;4.75;;;;;;;;;;4936211;29;20051;-67
2022/10/24 11:10:11;;;;;;;9.93;4.63;;;;;;;;;;4936215;29;20502;-67
2022/10/24 11:12:40;;;;;;;8.70;4.43;;;;;;;;;;4936126;29;20289;-67
2022/10/24 11:15:14;;;;;;;8.82;5.07;;;;;;;;;;4936080;29;20052;-67
2022/10/24 11:17:45;;;;;;;9.93;4.00;;;;;;;;;;4936138;29;20054;-67
2022/10/24 11:20:19;;;;;;;9.32;4.80;;;;;;;;;;4936109;29;20047;-67
2022/10/24 11:22:51;;;;;;;7.40;4.90;;;;;;;;;;4934862;29;20055;-67
2022/10/24 11:25:32;;;;;;;9.95;4.32;;;;;;;;;;4936291;29;20079;-67
2022/10/24 11:27:59;;;;;;;8.57;4.50;;;;;;;;;;4936070;29;20044;-67
2022/10/24 11:30:41;;;;;;;11.90;4.90;;;;;;;;;;4935769;29;20067;-67
2022/10/24 11:33:13;;;;;;;6.78;4.78;;;;;;;;;;4935725;29;20380;-67
2022/10/24 11:35:44;;;;;;;9.13;4.50;;;;;;;;;;4935275;29;20126;-66
2022/10/24 11:38:16;;;;;;;7.13;4.18;;;;;;;;;;4935759;29;20044;-66
2022/10/24 11:40:45;;;;;;;7.68;4.43;;;;;;;;;;4935588;29;20059;-66
2022/10/24 11:43:21;;;;;;;7.88;4.57;;;;;;;;;;4935550;29;20047;-66
2022/10/24 11:45:55;;;;;;;9.50;4.13;;;;;;;;;;4935506;29;20079;-66
2022/10/24 11:48:35;;;;;;;5.85;3.88;;;;;;;;;;4935662;29;20360;-66
2022/10/24 11:51:29;;;;;;;8.73;3.63;;;;;;;;;;4934579;29;20043;-66
2022/10/24 11:53:58;;;;;;;12.35;4.47;;;;;;;;;;4933406;29;20063;-66
2022/10/24 11:56:44;;;;;;;6.75;3.40;;;;;;;;;;4934276;29;20047;-67
2022/10/24 11:59:15;;;;;;;5.30;3.08;;;;;;;;;;4935540;29;20418;-67
2022/10/24 12:01:51;;;;;;;6.90;3.47;;;;;;;;;;4935622;29;20130;-66
2022/10/24 12:04:33;;;;;;;8.77;3.50;;;;;;;;;;4935397;29;20502;-67
2022/10/24 12:07:12;;;;;;;8.40;3.30;;;;;;;;;;4935258;29;20067;-67
2022/10/24 12:09:48;;;;;;;9.95;3.80;;;;;;;;;;4935404;29;20054;-67
2022/10/24 12:12:16;;;;;;;5.40;2.90;;;;;;;;;;4934255;29;20075;-66
2022/10/24 12:15:02;;;;;;;8.07;3.60;;;;;;;;;;4935271;29;20228;-66
2022/10/24 12:17:55;;;;;;;7.95;3.20;;;;;;;;;;4934222;29;20127;-66
2022/10/24 12:20:23;;;;;;;7.53;3.50;;;;;;;;;;4935431;29;20058;-66
2022/10/24 12:22:52;;;;;;;5.57;3.30;;;;;;;;;;4935333;29;20067;-67
2022/10/24 12:25:22;;;;;;;6.63;3.65;;;;;;;;;;4935200;29;20103;-66
2022/10/24 12:27:54;;;;;;;9.15;3.63;;;;;;;;;;4934028;29;20430;-67
2022/10/24 12:30:23;;;;;;;6.00;3.20;;;;;;;;;;4935180;29;20048;-66
2022/10/24 12:32:56;;;;;;;8.55;3.95;;;;;;;;;;4935017;29;20048;-66
2022/10/24 12:35:29;;;;;;;7.35;3.50;;;;;;;;;;4935086;29;20040;-66
2022/10/24 12:37:58;;;;;;;7.80;3.78;;;;;;;;;;4935285;29;20405;-67
2022/10/24 12:40:44;;;;;;;5.07;3.33;;;;;;;;;;4935119;29;20040;-66
2022/10/24 12:43:14;;;;;;;7.75;3.22;;;;;;;;;;4933796;29;20055;-66
2022/10/24 12:45:41;;;;;;;8.57;3.45;;;;;;;;;;4935602;29;20043;-66
2022/10/24 12:48:14;;;;;;;13.05;3.78;;;;;;;;;;4938938;29;20048;-67
2022/10/24 12:50:41;;;;;;;43.55;5.35;;;;;;;;;;4938999;29;20402;-66
2022/10/24 12:53:38;;;;;;;33.90;5.30;;;;;;;;;;4938784;29;20095;-66
2022/10/24 12:56:05;;;;;;;9.93;4.00;;;;;;;;;;4926717;29;20043;-66
2022/10/24 12:58:33;;;;;;;10.30;4.47;;;;;;;;;;4938763;29;20095;-66
2022/10/24 13:01:00;;;;;;;6.43;3.80;;;;;;;;;;4938695;29;20067;-66
2022/10/24 13:03:46;;;;;;;33.70;6.88;;;;;;;;;;4938616;29;20558;-66
2022/10/24 13:06:21;;;;;;;8.10;3.47;;;;;;;;;;4937359;29;20164;-66
2022/10/24 13:08:51;;;;;;;10.65;3.40;;;;;;;;;;4938500;29;20059;-67
2022/10/24 13:11:27;;;;;;;14.90;4.15;;;;;;;;;;4937227;29;20047;-67
2022/10/24 13:14:15;;;;;;;10.35;4.05;;;;;;;;;;4938392;29;20055;-67
2022/10/24 13:16:57;;;;;;;7.93;3.65;;;;;;;;;;4938487;29;20111;-67
2022/10/24 13:19:25;;;;;;;8.98;3.30;;;;;;;;;;4937300;29;20083;-67
2022/10/24 13:21:54;;;;;;;28.60;4.68;;;;;;;;;;4938185;29;20039;-67
2022/10/24 13:24:24;;;;;;;13.55;3.88;;;;;;;;;;4938244;29;20063;-67
2022/10/24 13:26:55;;;;;;;7.60;3.33;;;;;;;;;;4939709;29;20051;-67
2022/10/24 13:29:23;;;;;;;10.70;2.95;;;;;;;;;;4938364;29;20094;-67
2022/10/24 13:31:51;;;;;;;9.90;3.53;;;;;;;;;;4937978;29;20044;-67
2022/10/24 13:34:20;;;;;;;6.88;2.95;;;;;;;;;;4938010;29;20051;-67
2022/10/24 13:36:50;;;;;;;7.68;4.18;;;;;;;;;;4937965;29;20078;-67
2022/10/24 13:39:21;;;;;;;7.97;3.38;;;;;;;;;;4937950;29;20104;-67
2022/10/24 13:41:50;;;;;;;6.38;4.07;;;;;;;;;;4936819;29;20046;-68
2022/10/24 13:44:26;;;;;;;7.72;3.50;;;;;;;;;;4937845;29;20056;-67
2022/10/24 13:47:13;;;;;;;6.63;3.60;;;;;;;;;;4921902;29;20152;-66
2022/10/24 13:49:49;;;;;;;8.43;3.60;;;;;;;;;;4919050;29;20052;-67
2022/10/24 13:52:53;;;;;;;8.38;3.97;;;;;;;;;;4918638;29;20115;-67
2022/10/24 13:55:26;;;;;;;6.47;3.50;;;;;;;;;;4897561;29;20054;-68
2022/10/24 13:57:55;;;;;;;6.28;3.50;;;;;;;;;;4910351;29;20060;-68
2022/10/24 14:00:27;;;;;;;9.55;3.53;;;;;;;;;;4915179;29;20107;-69
2022/10/24 14:02:58;;;;;;;8.75;4.28;;;;;;;;;;4918692;29;20108;-74
2022/10/24 14:05:29;;;;;;;9.40;4.75;;;;;;;;;;4918462;29;20052;-70
2022/10/24 14:07:58;;;;;;;10.40;3.72;;;;;;;;;;4918361;29;20118;-69
2022/10/24 14:10:26;;;;;;;11.85;3.90;;;;;;;;;;4918189;29;20048;-69
2022/10/24 14:12:56;;;;;;;9.88;3.45;;;;;;;;;;4918438;29;20530;-69
2022/10/24 14:15:28;;;;;;;7.65;3.97;;;;;;;;;;4918325;29;20123;-69
2022/10/24 14:18:00;;;;;;;11.20;3.67;;;;;;;;;;4918191;29;20047;-67
2022/10/24 14:20:37;;;;;;;8.63;3.90;;;;;;;;;;4915638;29;20052;-67
2022/10/24 14:23:23;;;;;;;10.52;4.60;;;;;;;;;;4914814;29;20040;-67
2022/10/24 14:26:14;;;;;;;9.07;4.57;;;;;;;;;;4910266;29;20048;-68
2022/10/24 14:28:51;;;;;;;10.48;4.43;;;;;;;;;;4912217;29;20499;-67
2022/10/24 14:31:25;;;;;;;18.52;7.05;;;;;;;;;;4917513;29;20052;-67
2022/10/24 14:33:54;;;;;;;18.83;6.85;;;;;;;;;;4916576;29;20033;-67
2022/10/24 14:36:23;;;;;;;16.98;5.65;;;;;;;;;;4915521;29;20040;-67
2022/10/24 14:38:54;;;;;;;15.35;5.32;;;;;;;;;;4916637;29;20428;-67
2022/10/24 14:41:29;;;;;;;14.27;5.60;;;;;;;;;;4917003;29;20063;-67
2022/10/24 14:43:57;;;;;;;13.60;5.53;;;;;;;;;;4911032;29;20040;-67
2022/10/24 14:46:38;;;;;;;20.35;6.32;;;;;;;;;;4917197;29;20519;-67
2022/10/24 14:49:22;;;;;;;18.50;5.65;;;;;;;;;;4915422;29;20051;-67
2022/10/24 14:51:52;;;;;;;11.90;5.25;;;;;;;;;;4916993;29;20056;-68
2022/10/24 14:54:26;;;;;;;13.95;6.30;;;;;;;;;;4916914;29;20044;-68